Time;durP1;ratioP1;P1;durP2;ratioP2;P2;SDS_P1;SDS_P2;PMS_P1;PMS_P2;Temp;Humidity;BMP_temperature;BMP_pressure;BME280_temperature;BME280_humidity;BME280_pressure;Samples;Min_cycle;Max_cycle;Signal;HPM_P1;HPM_P2
2022/11/18 00:00:03;;;;;;;39.67;18.43;;;;;;;;;;5060667;27;87040;-60
2022/11/18 00:02:32;;;;;;;31.93;16.10;;;;;;;;;;5061031;27;87012;-60
2022/11/18 00:05:00;;;;;;;30.03;15.13;;;;;;;;;;5060063;27;89573;-60
2022/11/18 00:07:29;;;;;;;38.53;17.47;;;;;;;;;;5060330;27;88905;-60
2022/11/18 00:09:57;;;;;;;35.27;16.30;;;;;;;;;;5060932;27;87082;-60
2022/11/18 00:15:13;;;;;;;33.10;15.00;;;;;;;;;;5058710;27;88857;-60
2022/11/18 00:17:41;;;;;;;25.63;15.20;;;;;;;;;;5060007;27;88918;-60
2022/11/18 00:20:09;;;;;;;26.70;14.60;;;;;;;;;;5061382;27;88059;-60
2022/11/18 00:22:38;;;;;;;27.17;13.27;;;;;;;;;;5064134;27;86985;-60
2022/11/18 00:25:06;;;;;;;24.70;11.53;;;;;;;;;;5064085;27;89175;-60
2022/11/18 00:27:35;;;;;;;22.33;12.37;;;;;;;;;;5063659;27;88906;-60
2022/11/18 00:30:03;;;;;;;22.57;11.87;;;;;;;;;;5063577;27;87240;-60
2022/11/18 00:32:33;;;;;;;24.80;10.63;;;;;;;;;;5064101;27;87067;-60
2022/11/18 00:35:01;;;;;;;20.07;11.37;;;;;;;;;;5065159;27;89031;-60
2022/11/18 00:37:29;;;;;;;20.03;10.83;;;;;;;;;;5063246;27;89227;-60
2022/11/18 00:39:58;;;;;;;18.63;10.13;;;;;;;;;;5063054;27;87035;-60
2022/11/18 00:45:12;;;;;;;18.07;9.70;;;;;;;;;;5062806;27;89047;-60
2022/11/18 00:47:41;;;;;;;16.40;8.90;;;;;;;;;;5064912;27;89846;-60
2022/11/18 00:50:10;;;;;;;20.33;9.53;;;;;;;;;;5064924;27;87602;-62
2022/11/18 00:52:38;;;;;;;20.97;8.97;;;;;;;;;;5064559;27;86983;-60
2022/11/18 00:55:07;;;;;;;18.77;9.13;;;;;;;;;;5062638;27;89115;-61
2022/11/18 00:57:35;;;;;;;11.90;6.77;;;;;;;;;;5063637;27;87134;-62
2022/11/18 01:00:04;;;;;;;13.10;8.23;;;;;;;;;;5064220;27;86904;-62
2022/11/18 01:02:33;;;;;;;19.70;8.97;;;;;;;;;;5064578;27;86348;-60
2022/11/18 01:05:02;;;;;;;12.33;6.70;;;;;;;;;;5062783;27;89122;-60
2022/11/18 01:07:31;;;;;;;12.07;7.03;;;;;;;;;;5063440;27;88703;-60
2022/11/18 01:09:59;;;;;;;13.70;6.97;;;;;;;;;;5062858;27;88112;-60
2022/11/18 01:15:20;;;;;;;9.33;5.83;;;;;;;;;;5043291;28;88062;-60
2022/11/18 01:17:48;;;;;;;13.77;6.90;;;;;;;;;;5043375;28;88758;-60
2022/11/18 01:20:18;;;;;;;11.00;6.37;;;;;;;;;;5043023;28;87076;-60
2022/11/18 01:22:46;;;;;;;10.60;5.97;;;;;;;;;;5056220;27;87273;-60
2022/11/18 01:25:14;;;;;;;12.67;6.53;;;;;;;;;;5063245;27;89122;-60
2022/11/18 01:27:43;;;;;;;11.50;5.87;;;;;;;;;;5063311;27;89218;-60
2022/11/18 01:30:12;;;;;;;12.27;5.83;;;;;;;;;;5062473;27;87110;-62
2022/11/18 01:32:40;;;;;;;11.40;6.33;;;;;;;;;;5062753;27;87078;-62
2022/11/18 01:35:09;;;;;;;11.47;5.27;;;;;;;;;;5062524;27;90183;-62
2022/11/18 01:37:38;;;;;;;8.60;6.00;;;;;;;;;;5063247;27;90043;-62
2022/11/18 01:40:08;;;;;;;12.80;6.07;;;;;;;;;;5063272;27;87064;-60
2022/11/18 01:42:36;;;;;;;9.10;5.00;;;;;;;;;;5062855;27;87162;-62
2022/11/18 01:45:08;;;;;;;10.13;5.80;;;;;;;;;;5063118;27;89172;-62
2022/11/18 01:47:38;;;;;;;10.87;4.87;;;;;;;;;;5063290;27;88813;-62
2022/11/18 01:50:06;;;;;;;10.73;5.03;;;;;;;;;;5048936;27;87097;-62
2022/11/18 01:52:35;;;;;;;7.20;4.40;;;;;;;;;;5043509;28;86369;-62
2022/11/18 01:55:07;;;;;;;8.50;4.90;;;;;;;;;;5042830;28;89124;-60
2022/11/18 01:57:35;;;;;;;7.17;4.80;;;;;;;;;;5042746;28;88965;-61
2022/11/18 02:00:04;;;;;;;8.77;5.00;;;;;;;;;;5055471;27;87993;-60
2022/11/18 02:02:33;;;;;;;7.33;4.50;;;;;;;;;;5063457;27;87129;-62
2022/11/18 02:05:02;;;;;;;7.47;4.63;;;;;;;;;;5062791;27;89098;-62
2022/11/18 02:07:30;;;;;;;9.50;4.77;;;;;;;;;;5062767;27;88841;-62
2022/11/18 02:09:58;;;;;;;10.57;4.53;;;;;;;;;;5063256;27;87022;-62
2022/11/18 02:12:28;;;;;;;6.63;3.93;;;;;;;;;;5062946;27;87096;-62
2022/11/18 02:14:56;;;;;;;10.30;5.10;;;;;;;;;;5060672;27;89183;-62
2022/11/18 02:17:27;;;;;;;6.30;3.90;;;;;;;;;;5062933;27;87914;-62
2022/11/18 02:20:02;;;;;;;4.73;3.60;;;;;;;;;;5062950;27;87087;-62
2022/11/18 02:22:36;;;;;;;7.67;4.33;;;;;;;;;;5062583;27;87107;-62
2022/11/18 02:25:06;;;;;;;5.10;3.53;;;;;;;;;;5061713;27;90023;-62
2022/11/18 02:27:49;;;;;;;8.40;4.73;;;;;;;;;;5062962;27;89859;-62
2022/11/18 02:30:19;;;;;;;5.30;3.27;;;;;;;;;;5059767;27;86950;-62
2022/11/18 02:32:49;;;;;;;4.70;3.13;;;;;;;;;;5062665;27;87092;-62
2022/11/18 02:35:19;;;;;;;3.47;2.63;;;;;;;;;;5062343;27;89128;-62
2022/11/18 02:37:48;;;;;;;7.30;3.93;;;;;;;;;;5062440;27;87956;-61
2022/11/18 02:40:17;;;;;;;9.53;4.30;;;;;;;;;;5062570;27;87048;-62
2022/11/18 02:42:46;;;;;;;7.83;3.57;;;;;;;;;;5060369;27;86331;-62
2022/11/18 02:45:14;;;;;;;5.10;3.30;;;;;;;;;;5059340;27;88106;-62
2022/11/18 02:47:44;;;;;;;4.83;3.20;;;;;;;;;;5082834;27;87095;-62
2022/11/18 02:50:17;;;;;;;4.17;3.07;;;;;;;;;;5064999;27;88093;-62
2022/11/18 02:52:46;;;;;;;5.33;2.83;;;;;;;;;;5061912;27;87034;-62
2022/11/18 02:55:14;;;;;;;3.63;2.73;;;;;;;;;;5062479;27;89464;-62
2022/11/18 02:57:44;;;;;;;4.57;2.83;;;;;;;;;;5062177;27;87904;-62
2022/11/18 03:00:12;;;;;;;6.23;3.23;;;;;;;;;;5062190;27;87035;-62
2022/11/18 03:02:41;;;;;;;4.63;3.20;;;;;;;;;;5081141;27;87045;-62
2022/11/18 03:05:13;;;;;;;5.47;2.80;;;;;;;;;;5081813;27;87911;-62
2022/11/18 03:07:42;;;;;;;7.87;3.60;;;;;;;;;;5083121;27;87856;-61
2022/11/18 03:10:10;;;;;;;5.30;2.90;;;;;;;;;;5082082;27;87021;-61
2022/11/18 03:12:41;;;;;;;4.17;2.33;;;;;;;;;;5070531;27;87077;-61
2022/11/18 03:15:12;;;;;;;5.73;2.60;;;;;;;;;;5061235;27;89548;-62
2022/11/18 03:17:48;;;;;;;4.47;2.57;;;;;;;;;;5061179;27;90170;-62
2022/11/18 03:20:20;;;;;;;2.70;2.30;;;;;;;;;;5061528;27;86955;-62
2022/11/18 03:22:50;;;;;;;6.50;2.73;;;;;;;;;;5061824;27;87052;-62
2022/11/18 03:25:20;;;;;;;4.57;3.03;;;;;;;;;;5062302;27;89356;-62
2022/11/18 03:27:49;;;;;;;3.67;2.00;;;;;;;;;;5082273;27;88958;-62
2022/11/18 03:30:18;;;;;;;5.70;2.33;;;;;;;;;;5072679;27;87016;-62
2022/11/18 03:32:48;;;;;;;3.67;2.13;;;;;;;;;;5062040;27;86307;-62
2022/11/18 03:35:18;;;;;;;4.83;2.60;;;;;;;;;;5061108;27;89110;-62
2022/11/18 03:37:49;;;;;;;2.87;1.63;;;;;;;;;;5061684;27;88397;-62
2022/11/18 03:40:18;;;;;;;3.70;2.30;;;;;;;;;;5061280;27;88082;-62
2022/11/18 03:42:47;;;;;;;3.93;2.00;;;;;;;;;;5062287;27;87022;-62
2022/11/18 03:45:15;;;;;;;3.03;1.90;;;;;;;;;;5061328;27;89099;-62
2022/11/18 03:47:44;;;;;;;2.20;1.73;;;;;;;;;;5061233;27;87649;-61
2022/11/18 03:50:13;;;;;;;4.17;2.50;;;;;;;;;;5061480;27;87050;-62
2022/11/18 03:52:41;;;;;;;4.53;2.20;;;;;;;;;;5062064;27;87073;-62
2022/11/18 03:55:11;;;;;;;3.37;1.50;;;;;;;;;;5061500;27;89243;-62
2022/11/18 03:57:42;;;;;;;3.23;2.07;;;;;;;;;;5061365;27;88981;-62
2022/11/18 04:00:11;;;;;;;4.90;2.20;;;;;;;;;;5061163;27;87009;-62
2022/11/18 04:02:39;;;;;;;3.70;2.20;;;;;;;;;;5061565;27;86975;-62
2022/11/18 04:05:09;;;;;;;3.97;2.63;;;;;;;;;;5060633;27;88739;-62
2022/11/18 04:07:38;;;;;;;4.40;2.20;;;;;;;;;;5061838;27;89887;-62
2022/11/18 04:10:07;;;;;;;4.83;2.00;;;;;;;;;;5061329;27;87077;-62
2022/11/18 04:12:38;;;;;;;3.40;2.03;;;;;;;;;;5068079;27;87060;-62
2022/11/18 04:15:07;;;;;;;3.23;1.80;;;;;;;;;;5081311;27;88672;-62
2022/11/18 04:17:35;;;;;;;3.70;1.83;;;;;;;;;;5081238;27;88797;-62
2022/11/18 04:20:04;;;;;;;3.67;2.07;;;;;;;;;;5081694;27;87126;-62
2022/11/18 04:22:32;;;;;;;4.37;1.90;;;;;;;;;;5082191;27;86307;-62
2022/11/18 04:25:00;;;;;;;3.67;1.90;;;;;;;;;;5070181;27;89064;-62
2022/11/18 04:27:29;;;;;;;2.63;1.63;;;;;;;;;;5060680;27;88983;-62
2022/11/18 04:29:58;;;;;;;3.00;1.50;;;;;;;;;;5059655;27;88067;-61
2022/11/18 04:32:27;;;;;;;2.70;2.00;;;;;;;;;;5061368;27;87084;-62
2022/11/18 04:34:55;;;;;;;1.77;1.10;;;;;;;;;;5060453;27;89250;-62
2022/11/18 04:37:23;;;;;;;3.23;1.43;;;;;;;;;;5060904;27;88999;-62
2022/11/18 04:39:52;;;;;;;3.10;2.00;;;;;;;;;;5061033;27;87674;-62
2022/11/18 04:42:20;;;;;;;1.90;1.53;;;;;;;;;;5062348;27;87126;-62
2022/11/18 04:44:48;;;;;;;3.40;1.67;;;;;;;;;;5080941;27;88109;-62
2022/11/18 04:47:18;;;;;;;2.60;1.50;;;;;;;;;;5081512;27;88851;-62
2022/11/18 04:49:46;;;;;;;2.47;1.60;;;;;;;;;;5080707;27;87079;-62
2022/11/18 04:52:15;;;;;;;1.60;1.43;;;;;;;;;;5077616;27;86957;-62
2022/11/18 04:54:43;;;;;;;2.93;1.67;;;;;;;;;;5060020;27;89971;-62
2022/11/18 04:57:11;;;;;;;2.60;1.47;;;;;;;;;;5060408;27;89908;-62
2022/11/18 04:59:39;;;;;;;2.27;1.27;;;;;;;;;;5060730;27;87105;-61
2022/11/18 05:02:08;;;;;;;3.27;1.60;;;;;;;;;;5060697;27;87104;-62
2022/11/18 05:04:38;;;;;;;2.77;1.07;;;;;;;;;;5064011;27;89661;-62
2022/11/18 05:07:07;;;;;;;1.43;1.23;;;;;;;;;;5045269;27;88726;-62
2022/11/18 05:09:35;;;;;;;2.67;1.73;;;;;;;;;;5042170;28;86996;-62
2022/11/18 05:14:49;;;;;;;3.33;1.63;;;;;;;;;;5041907;28;89128;-61
2022/11/18 05:17:18;;;;;;;2.63;1.40;;;;;;;;;;5042497;27;88944;-62
2022/11/18 05:19:48;;;;;;;1.67;1.10;;;;;;;;;;5042720;28;88003;-62
2022/11/18 05:22:16;;;;;;;2.47;1.50;;;;;;;;;;5043409;28;87095;-62
2022/11/18 05:24:44;;;;;;;1.87;0.97;;;;;;;;;;5043197;28;89224;-62
2022/11/18 05:27:13;;;;;;;1.47;1.37;;;;;;;;;;5043411;28;88604;-62
2022/11/18 05:29:41;;;;;;;2.43;1.63;;;;;;;;;;5042973;28;87202;-61
2022/11/18 05:32:09;;;;;;;1.67;1.30;;;;;;;;;;5043077;28;87040;-62
2022/11/18 05:34:38;;;;;;;1.30;1.07;;;;;;;;;;5042994;28;88122;-62
2022/11/18 05:37:07;;;;;;;2.47;1.40;;;;;;;;;;5043201;28;88990;-61
2022/11/18 05:39:36;;;;;;;1.43;1.33;;;;;;;;;;5043528;28;87107;-62
2022/11/18 05:44:50;;;;;;;1.60;1.00;;;;;;;;;;5022108;28;89960;-62
2022/11/18 05:47:25;;;;;;;1.80;1.47;;;;;;;;;;5027978;28;89723;-62
2022/11/18 05:49:54;;;;;;;2.23;0.90;;;;;;;;;;5042763;28;87127;-62
2022/11/18 05:52:23;;;;;;;2.57;1.13;;;;;;;;;;5042589;28;86952;-62
2022/11/18 05:54:52;;;;;;;2.97;1.00;;;;;;;;;;5042812;28;88096;-62
2022/11/18 05:57:20;;;;;;;1.10;0.87;;;;;;;;;;5042865;28;87798;-62
2022/11/18 05:59:48;;;;;;;1.10;1.00;;;;;;;;;;5043062;28;87059;-62
2022/11/18 06:02:17;;;;;;;1.60;1.37;;;;;;;;;;5043538;28;86520;-62
2022/11/18 06:04:46;;;;;;;3.43;1.47;;;;;;;;;;5042646;28;89066;-61
2022/11/18 06:07:15;;;;;;;3.43;1.00;;;;;;;;;;5060750;27;89002;-62
2022/11/18 06:09:45;;;;;;;1.23;1.00;;;;;;;;;;5063037;27;87971;-62
2022/11/18 06:12:14;;;;;;;1.63;0.87;;;;;;;;;;5063150;27;86979;-62
2022/11/18 06:14:43;;;;;;;1.40;1.03;;;;;;;;;;5061968;27;89132;-62
2022/11/18 06:17:12;;;;;;;1.17;0.93;;;;;;;;;;5061077;27;88783;-61
2022/11/18 06:19:41;;;;;;;1.70;1.20;;;;;;;;;;5062924;27;87037;-62
2022/11/18 06:22:09;;;;;;;1.37;1.23;;;;;;;;;;5062920;27;87128;-62
2022/11/18 06:24:37;;;;;;;2.70;1.00;;;;;;;;;;5062578;27;91312;-62
2022/11/18 06:27:07;;;;;;;1.10;0.87;;;;;;;;;;5063013;27;88963;-62
2022/11/18 06:29:35;;;;;;;0.70;0.70;;;;;;;;;;5063064;27;87158;-61
2022/11/18 06:32:03;;;;;;;2.20;1.20;;;;;;;;;;5062892;27;86968;-61
2022/11/18 06:34:32;;;;;;;2.70;0.80;;;;;;;;;;5062242;27;90079;-61
2022/11/18 06:37:14;;;;;;;1.73;1.07;;;;;;;;;;5062927;27;89517;-62
2022/11/18 06:39:42;;;;;;;1.53;1.13;;;;;;;;;;5062685;27;87010;-61
2022/11/18 06:43:37;;;;;;;2.90;1.43;;;;;;;;;;5061543;27;87001;-62
2022/11/18 06:45:01;;;;;;;1.17;0.90;;;;;;;;;;5062822;27;89356;-62
2022/11/18 06:47:29;;;;;;;2.20;0.90;;;;;;;;;;5061989;27;88812;-61
2022/11/18 06:49:58;;;;;;;2.13;0.90;;;;;;;;;;5062379;27;87026;-61
2022/11/18 06:52:26;;;;;;;0.60;0.60;;;;;;;;;;5062560;27;86397;-61
2022/11/18 06:54:54;;;;;;;2.60;1.03;;;;;;;;;;5061833;27;89090;-61
2022/11/18 06:57:24;;;;;;;1.57;0.67;;;;;;;;;;5061789;27;87728;-62
2022/11/18 06:59:52;;;;;;;0.57;0.57;;;;;;;;;;5069870;27;88044;-62
2022/11/18 07:02:28;;;;;;;1.73;0.60;;;;;;;;;;5082581;27;87041;-62
2022/11/18 07:04:57;;;;;;;1.07;0.90;;;;;;;;;;5082257;27;89001;-61
2022/11/18 07:07:25;;;;;;;4.10;1.10;;;;;;;;;;5081778;27;88908;-62
2022/11/18 07:09:54;;;;;;;1.30;0.80;;;;;;;;;;5082232;27;87055;-62
2022/11/18 07:12:22;;;;;;;1.03;0.77;;;;;;;;;;5082452;27;87597;-62
2022/11/18 07:14:52;;;;;;;0.53;0.40;;;;;;;;;;5065518;27;88861;-62
2022/11/18 07:17:20;;;;;;;0.80;0.73;;;;;;;;;;5062398;27;87379;-62
2022/11/18 07:19:49;;;;;;;2.13;1.00;;;;;;;;;;5062084;27;86983;-61
2022/11/18 07:22:17;;;;;;;0.87;0.67;;;;;;;;;;5061854;27;86965;-61
2022/11/18 07:24:45;;;;;;;0.60;0.60;;;;;;;;;;5061503;27;90089;-62
2022/11/18 07:27:14;;;;;;;0.43;0.43;;;;;;;;;;5062185;27;89962;-61
2022/11/18 07:29:42;;;;;;;0.57;0.57;;;;;;;;;;5061846;27;87026;-62
2022/11/18 07:32:12;;;;;;;1.37;0.67;;;;;;;;;;5062407;27;87084;-62
2022/11/18 07:34:40;;;;;;;0.80;0.73;;;;;;;;;;5061767;27;89040;-62
2022/11/18 07:37:09;;;;;;;1.37;0.90;;;;;;;;;;5062166;27;91166;-61
2022/11/18 07:39:37;;;;;;;0.83;0.80;;;;;;;;;;5062122;27;87048;-62
2022/11/18 07:42:05;;;;;;;1.43;1.00;;;;;;;;;;5061835;27;86306;-62
2022/11/18 07:44:34;;;;;;;0.87;0.87;;;;;;;;;;5060953;27;89097;-62
2022/11/18 07:47:02;;;;;;;1.07;0.87;;;;;;;;;;5062018;27;87562;-62
2022/11/18 07:49:32;;;;;;;0.90;0.90;;;;;;;;;;5060758;27;87882;-62
2022/11/18 07:52:00;;;;;;;0.50;0.50;;;;;;;;;;5061769;27;87804;-62
2022/11/18 07:54:28;;;;;;;0.80;0.80;;;;;;;;;;5061401;27;89604;-62
2022/11/18 07:56:57;;;;;;;0.60;0.60;;;;;;;;;;5061027;27;88833;-61
2022/11/18 07:59:25;;;;;;;1.13;0.77;;;;;;;;;;5061507;27;87055;-62
2022/11/18 08:01:53;;;;;;;1.10;0.77;;;;;;;;;;5060866;27;87043;-61
2022/11/18 08:04:23;;;;;;;2.57;1.00;;;;;;;;;;5059168;27;89360;-61
2022/11/18 08:06:53;;;;;;;0.90;0.90;;;;;;;;;;5059907;27;87924;-62
2022/11/18 08:09:21;;;;;;;0.83;0.70;;;;;;;;;;5040060;28;87409;-63
2022/11/18 08:11:49;;;;;;;0.77;0.77;;;;;;;;;;5035913;28;87061;-62
2022/11/18 08:14:18;;;;;;;0.57;0.57;;;;;;;;;;5039883;28;90106;-62
2022/11/18 08:16:46;;;;;;;0.83;0.60;;;;;;;;;;5041319;28;89751;-63
2022/11/18 08:19:14;;;;;;;0.40;0.40;;;;;;;;;;5040055;28;87176;-63
2022/11/18 08:21:43;;;;;;;0.73;0.73;;;;;;;;;;5041067;28;86916;-63
2022/11/18 08:24:13;;;;;;;0.77;0.50;;;;;;;;;;5040294;28;89122;-63
2022/11/18 08:26:42;;;;;;;1.00;0.60;;;;;;;;;;5040265;28;88843;-63
2022/11/18 08:29:10;;;;;;;2.50;0.90;;;;;;;;;;5041517;28;86997;-63
2022/11/18 08:31:38;;;;;;;0.77;0.73;;;;;;;;;;5041565;28;86320;-62
2022/11/18 08:34:07;;;;;;;0.53;0.53;;;;;;;;;;5041397;28;89166;-63
2022/11/18 08:36:36;;;;;;;0.67;0.63;;;;;;;;;;5041338;28;87686;-63
2022/11/18 08:39:05;;;;;;;0.73;0.60;;;;;;;;;;5041279;28;87963;-63
2022/11/18 08:41:35;;;;;;;1.23;0.93;;;;;;;;;;5044035;28;86970;-63
2022/11/18 08:44:04;;;;;;;1.37;1.10;;;;;;;;;;5044678;28;89214;-63
2022/11/18 08:46:33;;;;;;;1.30;0.80;;;;;;;;;;5045111;28;87059;-63
2022/11/18 08:49:01;;;;;;;0.70;0.57;;;;;;;;;;5044859;28;86966;-63
2022/11/18 08:51:29;;;;;;;1.40;0.67;;;;;;;;;;5045196;28;87000;-63
2022/11/18 08:53:58;;;;;;;0.93;0.87;;;;;;;;;;5044618;28;87898;-63
2022/11/18 08:56:26;;;;;;;1.47;0.93;;;;;;;;;;5044912;28;88682;-63
2022/11/18 08:58:56;;;;;;;0.57;0.57;;;;;;;;;;5044923;28;87076;-63
2022/11/18 09:01:24;;;;;;;0.40;0.40;;;;;;;;;;5044380;28;87079;-63
2022/11/18 09:03:53;;;;;;;1.53;0.57;;;;;;;;;;5043989;28;89123;-63
2022/11/18 09:06:23;;;;;;;1.67;0.73;;;;;;;;;;5054076;27;89771;-63
2022/11/18 09:08:51;;;;;;;0.50;0.50;;;;;;;;;;5065062;27;87170;-63
2022/11/18 09:11:20;;;;;;;0.80;0.50;;;;;;;;;;5064566;27;87076;-61
2022/11/18 09:13:48;;;;;;;0.40;0.40;;;;;;;;;;5064810;27;89305;-61
2022/11/18 09:16:38;;;;;;;0.57;0.50;;;;;;;;;;5064509;27;87420;-61
2022/11/18 09:19:06;;;;;;;0.40;0.40;;;;;;;;;;5064222;27;87084;-61
2022/11/18 09:21:55;;;;;;;0.80;0.50;;;;;;;;;;5064540;27;86201;-61
2022/11/18 09:24:23;;;;;;;0.63;0.63;;;;;;;;;;5063669;27;89215;-61
2022/11/18 09:26:52;;;;;;;1.50;0.70;;;;;;;;;;5064217;27;88934;-61
2022/11/18 09:29:24;;;;;;;0.97;0.50;;;;;;;;;;5064159;27;87842;-61
2022/11/18 09:31:54;;;;;;;1.97;0.70;;;;;;;;;;5064578;27;86992;-61
2022/11/18 09:34:22;;;;;;;0.30;0.30;;;;;;;;;;5064924;27;89692;-61
2022/11/18 09:36:54;;;;;;;0.57;0.57;;;;;;;;;;5064354;27;87943;-61
2022/11/18 09:39:23;;;;;;;2.33;0.63;;;;;;;;;;5065072;27;87101;-62
2022/11/18 09:41:54;;;;;;;0.40;0.40;;;;;;;;;;5064562;27;87006;-61
2022/11/18 09:44:26;;;;;;;1.33;0.50;;;;;;;;;;5064927;27;87429;-61
2022/11/18 09:46:59;;;;;;;0.20;0.20;;;;;;;;;;5065025;27;87763;-61
2022/11/18 09:49:28;;;;;;;0.30;0.30;;;;;;;;;;5064349;27;87012;-61
2022/11/18 09:51:56;;;;;;;0.80;0.63;;;;;;;;;;5064244;27;87045;-61
2022/11/18 09:54:25;;;;;;;0.80;0.40;;;;;;;;;;5063695;27;89051;-61
2022/11/18 09:56:54;;;;;;;1.77;0.53;;;;;;;;;;5064055;27;89855;-61
2022/11/18 09:59:23;;;;;;;0.63;0.63;;;;;;;;;;5063559;27;86937;-61
2022/11/18 10:01:52;;;;;;;2.13;0.40;;;;;;;;;;5063178;27;87038;-61
2022/11/18 10:04:22;;;;;;;0.30;0.30;;;;;;;;;;5063539;27;87823;-61
2022/11/18 10:06:50;;;;;;;0.27;0.27;;;;;;;;;;5062911;27;88070;-61
2022/11/18 10:09:21;;;;;;;0.30;0.30;;;;;;;;;;5063298;27;87075;-61
2022/11/18 10:11:53;;;;;;;0.30;0.30;;;;;;;;;;5063861;27;86331;-61
2022/11/18 10:14:25;;;;;;;0.70;0.50;;;;;;;;;;5062998;27;89196;-61
2022/11/18 10:16:55;;;;;;;0.50;0.50;;;;;;;;;;5063291;27;88763;-61
2022/11/18 10:19:28;;;;;;;0.90;0.63;;;;;;;;;;5063199;27;87953;-62
2022/11/18 10:21:59;;;;;;;0.20;0.20;;;;;;;;;;5063801;27;87142;-61
2022/11/18 10:24:28;;;;;;;0.30;0.30;;;;;;;;;;5063547;27;89122;-61
2022/11/18 10:26:57;;;;;;;0.40;0.40;;;;;;;;;;5062552;27;88879;-61
2022/11/18 10:29:26;;;;;;;1.13;0.40;;;;;;;;;;5062857;27;87154;-61
2022/11/18 10:31:55;;;;;;;0.50;0.40;;;;;;;;;;5062959;27;86917;-62
2022/11/18 10:34:31;;;;;;;3.37;0.40;;;;;;;;;;5063677;27;87465;-62
2022/11/18 10:37:00;;;;;;;1.27;0.40;;;;;;;;;;5062981;27;88565;-62
2022/11/18 10:39:28;;;;;;;1.27;0.50;;;;;;;;;;5063459;27;87053;-61
2022/11/18 10:41:57;;;;;;;0.40;0.40;;;;;;;;;;5064483;27;86857;-61
2022/11/18 10:44:33;;;;;;;0.33;0.33;;;;;;;;;;5062905;27;90073;-61
2022/11/18 10:47:31;;;;;;;0.30;0.30;;;;;;;;;;5063677;27;89628;-62
2022/11/18 10:50:02;;;;;;;0.30;0.30;;;;;;;;;;5000868;28;87153;-61
2022/11/18 10:52:30;;;;;;;0.20;0.20;;;;;;;;;;5050146;27;87293;-61
2022/11/18 10:55:22;;;;;;;0.60;0.30;;;;;;;;;;5063767;27;87990;-61
2022/11/18 10:57:51;;;;;;;0.27;0.27;;;;;;;;;;5053126;27;88921;-62
2022/11/18 11:00:40;;;;;;;0.30;0.30;;;;;;;;;;5063780;27;87134;-62
2022/11/18 11:03:29;;;;;;;0.47;0.40;;;;;;;;;;5062355;27;86265;-61
2022/11/18 11:06:19;;;;;;;0.60;0.60;;;;;;;;;;5056796;27;88670;-62
2022/11/18 11:08:48;;;;;;;0.30;0.30;;;;;;;;;;5063063;27;88946;-62
2022/11/18 11:11:24;;;;;;;0.53;0.30;;;;;;;;;;5062878;27;88053;-62
2022/11/18 11:13:54;;;;;;;0.40;0.30;;;;;;;;;;5063392;27;87225;-61
2022/11/18 11:16:22;;;;;;;0.50;0.40;;;;;;;;;;5062238;27;88851;-61
2022/11/18 11:18:54;;;;;;;1.30;0.43;;;;;;;;;;5062462;27;87620;-61
2022/11/18 11:21:26;;;;;;;0.47;0.33;;;;;;;;;;5063252;27;87025;-63
2022/11/18 11:23:55;;;;;;;0.53;0.53;;;;;;;;;;5062257;27;87048;-61
2022/11/18 11:26:25;;;;;;;0.80;0.67;;;;;;;;;;5062973;27;89201;-61
2022/11/18 11:29:16;;;;;;;0.53;0.53;;;;;;;;;;5063087;27;88374;-61
2022/11/18 11:31:46;;;;;;;1.80;0.40;;;;;;;;;;5064041;27;87014;-61
2022/11/18 11:34:16;;;;;;;0.67;0.50;;;;;;;;;;5064364;27;87112;-61
2022/11/18 11:36:48;;;;;;;0.40;0.40;;;;;;;;;;5062306;27;87979;-61
2022/11/18 11:39:24;;;;;;;0.67;0.40;;;;;;;;;;5062425;27;90241;-61
2022/11/18 11:41:54;;;;;;;0.93;0.20;;;;;;;;;;5062390;27;87094;-61
2022/11/18 11:44:30;;;;;;;0.50;0.50;;;;;;;;;;5064541;27;87041;-61
2022/11/18 11:49:50;;;;;;;0.60;0.60;;;;;;;;;;5068465;27;87763;-61
2022/11/18 11:52:22;;;;;;;0.40;0.40;;;;;;;;;;5073247;27;86979;-61
2022/11/18 11:54:51;;;;;;;0.60;0.60;;;;;;;;;;5076138;27;86227;-61
2022/11/18 11:57:21;;;;;;;1.37;0.60;;;;;;;;;;5075639;27;88073;-61
2022/11/18 11:59:50;;;;;;;0.30;0.30;;;;;;;;;;5077039;27;87850;-62
2022/11/18 12:02:23;;;;;;;2.57;0.50;;;;;;;;;;5073953;27;88035;-61
2022/11/18 12:04:52;;;;;;;0.50;0.40;;;;;;;;;;5067858;27;87013;-62
2022/11/18 12:07:22;;;;;;;0.30;0.30;;;;;;;;;;5070444;27;89118;-61
2022/11/18 12:10:02;;;;;;;0.30;0.30;;;;;;;;;;5072021;27;88909;-61
2022/11/18 12:12:35;;;;;;;0.47;0.30;;;;;;;;;;5077021;27;87191;-61
2022/11/18 12:15:09;;;;;;;0.50;0.40;;;;;;;;;;5065621;27;86886;-61
2022/11/18 12:17:38;;;;;;;0.30;0.30;;;;;;;;;;5069912;27;89761;-61
2022/11/18 12:20:22;;;;;;;0.90;0.60;;;;;;;;;;5067237;27;89079;-61
2022/11/18 12:23:10;;;;;;;0.40;0.40;;;;;;;;;;5063765;27;87188;-62
2022/11/18 12:25:51;;;;;;;0.93;0.40;;;;;;;;;;5069177;27;86962;-61
2022/11/18 12:28:23;;;;;;;0.40;0.40;;;;;;;;;;5071920;27;90096;-61
2022/11/18 12:30:51;;;;;;;0.30;0.30;;;;;;;;;;5064956;27;88677;-61
2022/11/18 12:33:20;;;;;;;0.53;0.53;;;;;;;;;;5067880;27;87066;-61
2022/11/18 12:35:48;;;;;;;0.60;0.60;;;;;;;;;;5071645;27;86902;-60
2022/11/18 12:38:29;;;;;;;0.33;0.33;;;;;;;;;;5073160;27;88130;-60
2022/11/18 12:40:57;;;;;;;1.60;0.60;;;;;;;;;;5067971;27;87625;-61
2022/11/18 12:43:46;;;;;;;1.40;0.40;;;;;;;;;;5070860;27;87006;-61
2022/11/18 12:46:33;;;;;;;0.43;0.43;;;;;;;;;;5071496;27;86185;-60
2022/11/18 12:49:16;;;;;;;0.40;0.40;;;;;;;;;;5071611;27;89192;-61
2022/11/18 12:51:45;;;;;;;0.50;0.40;;;;;;;;;;5070993;27;87725;-61
2022/11/18 12:54:31;;;;;;;0.33;0.33;;;;;;;;;;5070757;27;87784;-61
2022/11/18 12:57:00;;;;;;;0.43;0.40;;;;;;;;;;5069718;27;87050;-60
2022/11/18 12:59:32;;;;;;;0.30;0.30;;;;;;;;;;5065604;27;88871;-61
2022/11/18 13:02:07;;;;;;;0.83;0.50;;;;;;;;;;5065737;27;89044;-61
2022/11/18 13:04:36;;;;;;;1.00;0.40;;;;;;;;;;5063392;27;86953;-61
2022/11/18 13:08:11;;;;;;;1.23;0.80;;;;;;;;;;5065628;27;88156;-61
2022/11/18 13:10:04;;;;;;;0.70;0.60;;;;;;;;;;5061482;27;88976;-62
2022/11/18 13:12:32;;;;;;;1.80;0.53;;;;;;;;;;5061168;27;88764;-61
2022/11/18 13:17:54;;;;;;;0.77;0.20;;;;;;;;;;5060768;27;87084;-61
2022/11/18 13:20:23;;;;;;;0.40;0.40;;;;;;;;;;5060267;27;89038;-62
2022/11/18 13:25:39;;;;;;;0.40;0.40;;;;;;;;;;5061038;27;86917;-61
2022/11/18 13:28:11;;;;;;;0.30;0.30;;;;;;;;;;5064992;27;87023;-62
2022/11/18 13:30:43;;;;;;;0.40;0.40;;;;;;;;;;5064822;27;88936;-62
2022/11/18 13:33:12;;;;;;;0.30;0.30;;;;;;;;;;5064294;27;88915;-61
2022/11/18 13:35:40;;;;;;;0.60;0.50;;;;;;;;;;5063509;27;87046;-61
2022/11/18 13:38:17;;;;;;;0.50;0.50;;;;;;;;;;5064809;27;86210;-62
2022/11/18 13:41:11;;;;;;;0.80;0.60;;;;;;;;;;5063325;27;89282;-62
2022/11/18 13:43:40;;;;;;;0.53;0.50;;;;;;;;;;5064493;27;88977;-61
2022/11/18 13:46:10;;;;;;;0.93;0.60;;;;;;;;;;5063633;27;87889;-62
2022/11/18 13:48:38;;;;;;;0.40;0.40;;;;;;;;;;5064619;27;87055;-61
2022/11/18 13:51:06;;;;;;;1.27;0.93;;;;;;;;;;5063229;27;89091;-62
2022/11/18 13:53:36;;;;;;;0.50;0.50;;;;;;;;;;5063807;27;91632;-61
2022/11/18 13:56:06;;;;;;;1.10;1.00;;;;;;;;;;5062682;27;87188;-61
2022/11/18 13:58:36;;;;;;;0.30;0.30;;;;;;;;;;5063293;27;86987;-61
2022/11/18 14:01:25;;;;;;;0.40;0.40;;;;;;;;;;5063530;27;89360;-61
2022/11/18 14:03:54;;;;;;;1.23;0.40;;;;;;;;;;5063661;27;88970;-61
2022/11/18 14:06:24;;;;;;;1.60;0.70;;;;;;;;;;5063975;27;87056;-61
2022/11/18 14:09:03;;;;;;;0.60;0.60;;;;;;;;;;5064479;27;87043;-62
2022/11/18 14:11:36;;;;;;;1.27;0.80;;;;;;;;;;5063620;27;90118;-62
2022/11/18 14:14:05;;;;;;;0.60;0.60;;;;;;;;;;5064044;27;89832;-61
2022/11/18 14:16:34;;;;;;;0.70;0.70;;;;;;;;;;5063954;27;87065;-61
2022/11/18 14:19:02;;;;;;;0.93;0.67;;;;;;;;;;5063215;27;86969;-61
2022/11/18 14:21:31;;;;;;;1.43;0.60;;;;;;;;;;5063587;27;88990;-61
2022/11/18 14:23:59;;;;;;;0.90;0.50;;;;;;;;;;5063665;27;87906;-61
2022/11/18 14:26:28;;;;;;;0.60;0.60;;;;;;;;;;5064313;27;87080;-62
2022/11/18 14:28:58;;;;;;;0.73;0.60;;;;;;;;;;5064004;27;86260;-61
2022/11/18 14:31:27;;;;;;;0.53;0.53;;;;;;;;;;5064213;27;89394;-62
2022/11/18 14:34:04;;;;;;;0.80;0.80;;;;;;;;;;5063224;27;88964;-61
2022/11/18 14:36:33;;;;;;;1.07;0.70;;;;;;;;;;5062502;27;88123;-62
2022/11/18 14:39:01;;;;;;;0.83;0.63;;;;;;;;;;5061847;27;87062;-62
2022/11/18 14:41:49;;;;;;;0.93;0.87;;;;;;;;;;5063593;27;88549;-62
2022/11/18 14:44:20;;;;;;;0.73;0.57;;;;;;;;;;5063095;27;89076;-61
2022/11/18 14:46:51;;;;;;;1.10;0.67;;;;;;;;;;5063055;27;86943;-61
2022/11/18 14:49:20;;;;;;;0.50;0.50;;;;;;;;;;5063453;27;86989;-62
2022/11/18 14:51:49;;;;;;;1.80;0.63;;;;;;;;;;5062873;27;89083;-62
2022/11/18 14:54:18;;;;;;;0.63;0.63;;;;;;;;;;5064488;27;87812;-61
2022/11/18 14:56:54;;;;;;;0.93;0.80;;;;;;;;;;5063602;27;87033;-62
2022/11/18 14:59:23;;;;;;;0.70;0.60;;;;;;;;;;5063549;27;87096;-62
2022/11/18 15:01:52;;;;;;;1.30;0.57;;;;;;;;;;5062206;27;90102;-61
2022/11/18 15:04:20;;;;;;;2.60;1.10;;;;;;;;;;5063032;27;89725;-62
2022/11/18 15:06:49;;;;;;;0.80;0.80;;;;;;;;;;5060755;27;86981;-62
2022/11/18 15:09:17;;;;;;;0.67;0.67;;;;;;;;;;5063350;27;87020;-61
2022/11/18 15:11:46;;;;;;;0.50;0.40;;;;;;;;;;5062862;27;89115;-61
2022/11/18 15:14:15;;;;;;;0.47;0.47;;;;;;;;;;5061906;27;87966;-62
2022/11/18 15:16:45;;;;;;;0.93;0.43;;;;;;;;;;5052019;27;87084;-61
2022/11/18 15:19:14;;;;;;;0.53;0.53;;;;;;;;;;5042586;27;86280;-62
2022/11/18 15:21:42;;;;;;;2.30;0.97;;;;;;;;;;5042468;28;89279;-61